.
WxDataArchive / Data Records for 2013-12-11
2013-12-10 December 2013 2013-12-12

Data Records for Wednesday, 11 December 2013

Time	Temp	Chill	HIndex	Humid	Dewpt	 Wind 	HiWind	WindDir	Rain 	Barom 
-----	----	-----	------	-----	-----	------	------	-------	-----	----- 
00:00	17.2	17.2	17.2	54	3.4	1	4	248	0.00	30.304 
00:05	17.2	17.2	17.2	54	3.4	1	3	248	0.00	30.304 
00:10	17.0	17.0	17.0	54	3.3	0	2	248	0.00	30.304 
00:15	17.0	17.0	17.0	54	3.3	1	4	248	0.00	30.307 
00:20	17.0	17.0	17.0	55	3.7	1	3	248	0.00	30.307 
00:25	17.0	17.0	17.0	55	3.7	0	2	248	0.00	30.307 
00:30	16.9	16.9	16.9	56	4.0	1	3	248	0.00	30.311 
00:35	16.9	16.9	16.9	56	4.0	0	2	248	0.00	30.311 
00:40	16.7	16.7	16.7	57	4.1	1	4	248	0.00	30.311 
00:45	16.7	16.7	16.7	57	4.1	0	2	270	0.00	30.304 
00:50	16.7	16.7	16.7	58	4.5	1	3	270	0.00	30.304 
00:55	16.5	16.5	16.5	58	4.3	1	3	248	0.00	30.304 
01:00	16.4	16.4	16.4	58	4.2	0	2	248	0.00	30.304 
01:05	16.4	16.4	16.4	59	4.6	0	1	248	0.00	30.304 
01:10	16.2	16.2	16.2	59	4.4	0	1	248	0.00	30.304 
01:15	16.1	16.1	16.1	60	4.7	0	1	248	0.00	30.312 
01:20	16.1	16.1	16.1	60	4.7	0	2	248	0.00	30.312 
01:25	16.1	16.1	16.1	61	5.1	0	2	248	0.00	30.312 
01:30	16.1	16.1	16.1	61	5.1	0	2	248	0.00	30.305 
01:35	15.9	15.9	15.9	62	5.2	0	3	248	0.00	30.305 
01:40	15.9	15.9	15.9	62	5.2	0	2	248	0.00	30.305 
01:45	15.7	15.7	15.7	62	5.0	0	1	248	0.00	30.306 
01:50	15.7	15.7	15.7	63	5.4	0	1	248	0.00	30.306 
01:55	15.6	15.6	15.6	63	5.3	0	1	248	0.00	30.306 
02:00	15.4	15.4	15.4	63	5.1	0	2	248	0.00	30.302 
02:05	15.4	15.4	15.4	64	5.4	0	1	248	0.00	30.302 
02:10	15.4	15.4	15.4	64	5.4	0	1	248	0.00	30.302 
02:15	15.4	15.4	15.4	63	5.1	0	2	248	0.00	30.304 
02:20	15.4	15.4	15.4	63	5.1	0	3	248	0.00	30.304 
02:25	15.4	15.4	15.4	63	5.1	0	1	248	0.00	30.304 
02:30	15.4	15.4	15.4	63	5.1	0	2	248	0.00	30.303 
02:35	15.4	15.4	15.4	64	5.4	0	1	248	0.00	30.303 
02:40	15.4	15.4	15.4	64	5.4	0	1	248	0.00	30.303 
02:45	15.2	15.2	15.2	64	5.2	0	1	248	0.00	30.314 
02:50	15.2	15.2	15.2	64	5.2	0	1	248	0.00	30.314 
02:55	15.2	15.2	15.2	64	5.2	0	2	248	0.00	30.314 
03:00	15.1	15.1	15.1	65	5.5	0	1	248	0.00	30.315 
03:05	15.1	15.1	15.1	65	5.5	0	1	248	0.00	30.315 
03:10	14.9	14.9	14.9	65	5.3	0	1	248	0.00	30.315 
03:15	14.9	14.9	14.9	65	5.3	0	1	248	0.00	30.324 
03:20	14.8	14.8	14.8	65	5.2	0	0	---	0.00	30.324 
03:25	14.8	14.8	14.8	66	5.5	0	1	248	0.00	30.324 
03:30	14.8	14.8	14.8	66	5.5	0	1	248	0.00	30.332 
03:35	14.8	14.8	14.8	66	5.5	0	1	248	0.00	30.332 
03:40	14.8	14.8	14.8	66	5.5	0	1	248	0.00	30.332 
03:45	14.8	14.8	14.8	67	5.9	0	1	248	0.00	30.334 
03:50	14.9	14.9	14.9	67	6.0	0	1	248	0.00	30.334 
03:55	15.1	15.1	15.1	67	6.1	0	1	248	0.00	30.334 
04:00	15.1	15.1	15.1	66	5.8	0	1	248	0.00	30.338 
04:05	15.2	15.2	15.2	66	5.9	0	2	248	0.00	30.338 
04:10	15.4	15.4	15.4	66	6.1	0	2	248	0.00	30.338 
04:15	15.6	15.6	15.6	66	6.3	0	1	248	0.00	30.332 
04:20	15.6	15.6	15.6	66	6.3	0	1	248	0.00	30.332 
04:25	15.7	15.7	15.7	66	6.4	0	2	248	0.00	30.332 
04:30	15.9	15.9	15.9	66	6.6	0	0	---	0.00	30.331 
04:35	15.9	15.9	15.9	66	6.6	0	2	248	0.00	30.331 
04:40	15.9	15.9	15.9	65	6.2	0	2	248	0.00	30.331 
04:45	16.1	16.1	16.1	65	6.4	0	1	248	0.00	30.322 
04:50	16.1	16.1	16.1	66	6.8	0	0	---	0.00	30.322 
04:55	16.1	16.1	16.1	66	6.8	0	1	248	0.00	30.322 
05:00	16.1	16.1	16.1	66	6.8	0	1	248	0.00	30.317 
05:05	15.9	15.9	15.9	67	6.9	0	1	248	0.00	30.317 
05:10	15.7	15.7	15.7	67	6.7	0	1	248	0.00	30.317 
05:15	15.7	15.7	15.7	67	6.7	0	1	248	0.00	30.316 
05:20	15.6	15.6	15.6	67	6.6	0	2	248	0.00	30.316 
05:25	15.6	15.6	15.6	68	7.0	0	1	248	0.00	30.316 
05:30	15.6	15.6	15.6	68	7.0	0	2	248	0.00	30.317 
05:35	15.7	15.7	15.7	68	7.0	0	1	248	0.00	30.317 
05:40	15.7	15.7	15.7	68	7.0	0	2	248	0.00	30.317 
05:45	15.9	15.9	15.9	67	6.9	0	1	248	0.00	30.318 
05:50	15.9	15.9	15.9	67	6.9	0	1	248	0.00	30.318 
05:55	16.1	16.1	16.1	67	7.1	0	1	248	0.00	30.318 
06:00	16.2	16.2	16.2	67	7.2	0	1	248	0.00	30.316 
06:05	16.4	16.4	16.4	67	7.4	0	1	248	0.00	30.316 
06:10	16.5	16.5	16.5	66	7.2	0	1	248	0.00	30.316 
06:15	16.5	16.5	16.5	66	7.2	0	1	248	0.00	30.320 
06:20	16.7	16.7	16.7	66	7.3	0	1	248	0.00	30.320 
06:25	16.7	16.7	16.7	67	7.7	0	3	248	0.00	30.320 
06:30	16.7	16.7	16.7	68	8.0	0	2	248	0.00	30.324 
06:35	16.7	16.7	16.7	69	8.3	0	2	248	0.00	30.324 
06:40	16.5	16.5	16.5	71	8.8	0	2	248	0.00	30.324 
06:45	16.5	16.5	16.5	72	9.1	0	2	248	0.00	30.325 
06:50	16.4	16.4	16.4	73	9.3	0	3	248	0.00	30.325 
06:55	16.4	16.4	16.4	74	9.6	0	1	248	0.00	30.325 
07:00	16.4	16.4	16.4	75	9.9	0	2	248	0.00	30.327 
07:05	16.4	16.4	16.4	76	10.2	0	1	248	0.00	30.327 
07:10	16.4	16.4	16.4	77	10.5	0	3	248	0.00	30.327 
07:15	16.4	16.4	16.4	77	10.5	0	1	248	0.00	30.332 
07:20	16.4	16.4	16.4	78	10.8	0	2	248	0.00	30.332 
07:25	16.5	16.5	16.5	78	10.9	0	1	248	0.00	30.332 
07:30	16.5	16.5	16.5	79	11.1	0	1	248	0.00	30.330 
07:35	16.5	16.5	16.5	79	11.1	0	1	248	0.00	30.330 
07:40	16.7	16.7	16.7	80	11.6	0	1	248	0.00	30.330 
07:45	16.7	16.7	16.7	80	11.6	0	1	248	0.00	30.334 
07:50	16.9	16.9	16.9	80	11.8	0	2	248	0.00	30.334 
07:55	16.9	16.9	16.9	81	12.1	0	2	248	0.00	30.334 
08:00	17.0	17.0	17.0	81	12.2	0	1	248	0.00	30.345 
08:05	17.0	17.0	17.0	81	12.2	0	1	248	0.00	30.345 
08:10	17.2	17.2	17.2	82	12.7	0	1	248	0.00	30.345 
08:15	17.2	17.2	17.2	82	12.7	0	2	248	0.00	30.347 
08:20	17.3	17.3	17.3	82	12.8	0	1	248	0.00	30.347 
08:25	17.3	17.3	17.3	82	12.8	0	1	248	0.00	30.347 
08:30	17.5	17.5	17.5	83	13.2	0	1	248	0.00	30.348 
08:35	17.7	17.7	17.7	83	13.4	1	2	248	0.00	30.348 
08:40	17.7	17.7	17.7	83	13.4	0	2	248	0.00	30.348 
08:45	17.8	17.8	17.8	83	13.5	0	1	248	0.00	30.349 
08:50	18.0	18.0	18.0	84	14.0	0	3	248	0.00	30.349 
08:55	18.1	18.1	18.1	84	14.1	0	1	248	0.00	30.349 
09:00	18.3	18.3	18.3	84	14.3	0	2	248	0.00	30.350 
09:05	18.4	18.4	18.4	84	14.4	0	1	248	0.00	30.350 
09:10	18.6	18.6	18.6	84	14.6	0	2	248	0.00	30.350 
09:15	18.8	18.8	18.8	84	14.8	0	1	248	0.00	30.352 
09:20	18.9	18.9	18.9	84	14.9	0	1	248	0.00	30.352 
09:25	19.1	19.1	19.1	84	15.1	0	1	248	0.00	30.352 
09:30	19.2	19.2	19.2	84	15.2	0	1	248	0.00	30.362 
09:35	19.2	19.2	19.2	84	15.2	0	1	248	0.00	30.362 
09:40	19.4	19.4	19.4	84	15.4	0	1	248	0.00	30.362 
09:45	19.5	19.5	19.5	84	15.5	0	1	248	0.00	30.365 
09:50	19.5	19.5	19.5	84	15.5	0	2	248	0.00	30.365 
09:55	19.5	19.5	19.5	84	15.5	0	2	248	0.00	30.365 
10:00	19.7	19.7	19.7	84	15.7	0	1	248	0.00	30.369 
10:05	19.9	19.9	19.9	84	15.9	0	1	248	0.00	30.369 
10:10	19.9	19.9	19.9	84	15.9	0	1	248	0.00	30.369 
10:15	20.0	20.0	20.0	84	16.0	0	3	248	0.00	30.374 
10:20	20.0	20.0	20.0	84	16.0	0	2	248	0.00	30.374 
10:25	20.3	20.3	20.3	84	16.3	0	1	248	0.00	30.374 
10:30	20.5	20.5	20.5	83	16.2	0	1	248	0.00	30.379 
10:35	20.6	20.6	20.6	83	16.3	0	1	248	0.00	30.379 
10:40	20.8	20.8	20.8	83	16.5	0	2	248	0.00	30.379 
10:45	20.8	20.8	20.8	82	16.2	0	2	248	0.00	30.380 
10:50	20.8	20.8	20.8	82	16.2	0	2	248	0.00	30.380 
10:55	20.8	20.8	20.8	82	16.2	0	1	248	0.00	30.380 
11:00	21.0	21.0	21.0	82	16.4	0	2	248	0.00	30.379 
11:05	21.0	21.0	21.0	83	16.7	0	1	248	0.00	30.379 
11:10	21.0	21.0	21.0	82	16.4	0	1	248	0.00	30.379 
11:15	21.1	21.1	21.1	82	16.5	0	3	248	0.00	30.372 
11:20	21.1	21.1	21.1	82	16.5	0	2	248	0.00	30.372 
11:25	21.1	21.1	21.1	82	16.5	0	1	248	0.00	30.372 
11:30	21.4	21.4	21.4	82	16.8	0	2	248	0.00	30.363 
11:35	21.6	21.6	21.6	82	17.0	0	1	248	0.00	30.363 
11:40	21.8	21.8	21.8	82	17.2	0	1	248	0.00	30.363 
11:45	21.8	21.8	21.8	82	17.2	0	2	248	0.00	30.353 
11:50	21.6	21.6	21.6	81	16.7	0	1	248	0.00	30.353 
11:55	21.8	21.8	21.8	81	16.9	0	1	248	0.00	30.353 
12:00	21.8	21.8	21.8	81	16.9	0	2	248	0.00	30.341 
12:05	21.9	21.9	21.9	81	17.0	1	3	248	0.00	30.341 
12:10	21.9	21.9	21.9	81	17.0	1	4	292	0.00	30.341 
12:15	22.1	22.1	22.1	81	17.2	0	2	292	0.00	30.332 
12:20	22.1	22.1	22.1	80	16.9	1	2	292	0.00	30.332 
12:25	22.1	22.1	22.1	80	16.9	1	3	292	0.00	30.332 
12:30	21.9	21.9	21.9	79	16.4	1	4	270	0.00	30.326 
12:35	21.9	21.9	21.9	80	16.7	1	2	270	0.00	30.326 
12:40	21.9	21.9	21.9	79	16.4	1	4	292	0.00	30.326 
12:45	22.1	22.1	22.1	79	16.6	1	3	292	0.00	30.318 
12:50	22.1	22.1	22.1	79	16.6	1	3	270	0.00	30.318 
12:55	22.2	22.2	22.2	79	16.7	1	3	270	0.00	30.318 
13:00	22.4	22.4	22.4	79	16.9	1	3	270	0.00	30.309 
13:05	22.4	22.4	22.4	78	16.6	1	4	315	0.00	30.309 
13:10	22.4	22.4	22.4	77	16.3	1	5	248	0.00	30.309 
13:15	22.4	22.4	22.4	77	16.3	2	4	270	0.00	30.311 
13:20	22.5	22.5	22.5	77	16.4	1	3	292	0.00	30.311 
13:25	22.9	22.9	22.9	77	16.8	1	4	292	0.00	30.311 
13:30	23.2	23.2	23.2	76	16.8	2	5	338	0.00	30.307 
13:35	23.5	23.5	23.5	76	17.1	1	4	338	0.00	30.307 
13:40	23.6	23.6	23.6	75	16.9	1	4	338	0.00	30.307 
13:45	23.8	23.8	23.8	75	17.1	2	3	270	0.00	30.312 
13:50	23.9	23.9	23.9	75	17.2	1	4	270	0.00	30.312 
13:55	24.1	24.1	24.1	75	17.3	1	3	270	0.00	30.312 
14:00	24.1	24.1	24.1	73	16.7	2	5	270	0.00	30.316 
14:05	24.1	24.1	24.1	73	16.7	1	4	248	0.00	30.316 
14:10	24.4	24.4	24.4	73	17.0	1	4	248	0.00	30.316 
14:15	24.2	24.2	24.2	73	16.8	2	5	292	0.00	30.317 
14:20	24.4	24.4	24.4	72	16.7	2	4	270	0.00	30.317 
14:25	24.1	24.1	24.1	71	16.1	3	5	270	0.00	30.317 
14:30	23.9	23.9	23.9	71	15.9	2	4	270	0.00	30.318 
14:35	23.9	23.9	23.9	71	15.9	2	5	338	0.00	30.318 
14:40	24.1	24.1	24.1	71	16.1	1	4	292	0.00	30.318 
14:45	24.1	24.1	24.1	70	15.8	2	5	338	0.00	30.320 
14:50	23.9	23.9	23.9	69	15.2	2	5	248	0.00	30.320 
14:55	23.8	23.8	23.8	69	15.1	2	7	315	0.00	30.320 
15:00	23.8	23.8	23.8	69	15.1	2	5	315	0.00	30.329 
15:05	23.8	23.8	23.8	70	15.5	2	5	338	0.00	30.329 
15:10	23.8	23.8	23.8	69	15.1	2	5	338	0.00	30.329 
15:15	23.8	23.8	23.8	69	15.1	2	4	315	0.00	30.332 
15:20	23.6	23.6	23.6	69	14.9	3	5	270	0.00	30.332 
15:25	23.5	23.5	23.5	69	14.9	2	4	292	0.00	30.332 
15:30	23.5	23.5	23.5	69	14.9	1	4	292	0.00	30.335 
15:35	23.6	23.6	23.6	69	14.9	2	6	270	0.00	30.335 
15:40	23.6	23.6	23.6	69	14.9	1	4	292	0.00	30.335 
15:45	23.6	23.6	23.6	69	14.9	2	5	270	0.00	30.343 
15:50	23.5	23.5	23.5	69	14.9	2	6	270	0.00	30.343 
15:55	23.5	23.5	23.5	70	15.2	1	3	270	0.00	30.343 
16:00	23.6	23.6	23.6	70	15.3	1	4	315	0.00	30.351 
16:05	23.8	23.8	23.8	69	15.1	2	4	292	0.00	30.351 
16:10	23.8	23.8	23.8	69	15.1	2	3	270	0.00	30.351 
16:15	23.6	23.6	23.6	69	14.9	2	4	292	0.00	30.356 
16:20	23.5	23.5	23.5	70	15.2	2	5	270	0.00	30.356 
16:25	23.6	23.6	23.6	69	14.9	1	4	270	0.00	30.356 
16:30	23.6	23.6	23.6	68	14.6	2	4	270	0.00	30.362 
16:35	23.5	23.5	23.5	68	14.5	2	4	270	0.00	30.362 
16:40	23.3	23.3	23.3	67	14.0	2	4	248	0.00	30.362 
16:45	23.0	23.0	23.0	65	13.0	2	6	270	0.00	30.369 
16:50	22.9	22.9	22.9	64	12.6	3	5	270	0.00	30.369 
16:55	22.7	22.7	22.7	66	13.1	3	5	338	0.00	30.369 
17:00	22.4	22.4	22.4	70	14.1	3	5	270	0.00	30.381 
17:05	21.9	21.9	21.9	74	14.9	3	6	270	0.00	30.381 
17:10	21.4	21.4	21.4	76	15.0	2	5	315	0.00	30.381 
17:15	21.0	21.0	21.0	77	14.9	2	6	270	0.00	30.397 
17:20	20.5	20.5	20.5	78	14.8	2	5	292	0.00	30.397 
17:25	20.2	20.2	20.2	78	14.5	2	5	292	0.00	30.397 
17:30	19.9	19.9	19.9	79	14.5	2	7	292	0.00	30.407 
17:35	19.7	19.7	19.7	80	14.6	2	6	270	0.00	30.407 
17:40	19.4	19.4	19.4	80	14.3	2	5	315	0.00	30.407 
17:45	19.1	19.1	19.1	80	14.0	2	5	292	0.00	30.416 
17:50	18.8	18.8	18.8	79	13.4	2	7	338	0.00	30.416 
17:55	18.4	18.4	18.4	77	12.4	1	6	270	0.00	30.416 
18:00	18.4	18.4	18.4	77	12.4	1	4	315	0.00	30.427 
18:05	18.3	18.3	18.3	76	12.0	1	5	338	0.00	30.427 
18:10	18.3	18.3	18.3	75	11.7	2	4	315	0.00	30.427 
18:15	18.3	18.3	18.3	75	11.7	1	5	270	0.00	30.434 
18:20	18.3	18.3	18.3	75	11.7	2	6	292	0.00	30.434 
18:25	18.1	18.1	18.1	75	11.5	1	5	270	0.00	30.434 
18:30	17.8	17.8	17.8	75	11.2	1	3	270	0.00	30.440 
18:35	17.8	17.8	17.8	75	11.2	1	4	270	0.00	30.440 
18:40	17.8	17.8	17.8	75	11.2	1	3	270	0.00	30.440 
18:45	17.8	17.8	17.8	74	10.9	1	6	270	0.00	30.451 
18:50	17.7	17.7	17.7	73	10.5	2	6	292	0.00	30.451 
18:55	17.3	17.3	17.3	71	9.5	2	5	292	0.00	30.451 
19:00	17.2	17.2	17.2	69	8.8	2	4	292	0.00	30.466 
19:05	16.9	16.9	16.9	69	8.5	2	6	270	0.00	30.466 
19:10	16.9	16.9	16.9	69	8.5	1	4	270	0.00	30.466 
19:15	16.7	16.7	16.7	68	8.0	1	4	292	0.00	30.470 
19:20	16.4	16.4	16.4	68	7.7	1	4	338	0.00	30.470 
19:25	16.1	16.1	16.1	68	7.4	1	4	270	0.00	30.470 
19:30	15.7	15.7	15.7	68	7.0	1	3	248	0.00	30.478 
19:35	15.4	15.4	15.4	68	6.8	0	2	270	0.00	30.478 
19:40	15.2	15.2	15.2	68	6.6	0	2	270	0.00	30.478 
19:45	14.9	14.9	14.9	68	6.3	0	3	270	0.00	30.476 
19:50	14.8	14.8	14.8	69	6.5	0	1	270	0.00	30.476 
19:55	14.4	14.4	14.4	69	6.1	0	1	270	0.00	30.476 
20:00	14.3	14.3	14.3	69	6.0	0	0	---	0.00	30.484 
20:05	14.0	14.0	14.0	70	6.0	0	1	270	0.00	30.484 
20:10	14.0	14.0	14.0	71	6.4	0	1	270	0.00	30.484 
20:15	13.8	13.8	13.8	71	6.2	0	1	270	0.00	30.493 
20:20	13.8	13.8	13.8	71	6.2	0	1	270	0.00	30.493 
20:25	13.6	13.6	13.6	72	6.3	0	1	270	0.00	30.493 
20:30	13.5	13.5	13.5	72	6.2	0	1	270	0.00	30.489 
20:35	13.3	13.3	13.3	72	6.0	0	1	270	0.00	30.489 
20:40	13.3	13.3	13.3	73	6.3	0	2	270	0.00	30.489 
20:45	13.3	13.3	13.3	73	6.3	0	2	270	0.00	30.500 
20:50	13.3	13.3	13.3	72	6.0	0	2	270	0.00	30.500 
20:55	13.1	13.1	13.1	72	5.8	0	2	270	0.00	30.500 
21:00	13.1	13.1	13.1	71	5.5	0	1	270	0.00	30.500 
21:05	12.9	12.9	12.9	71	5.3	0	2	270	0.00	30.500 
21:10	12.9	12.9	12.9	70	5.0	0	2	270	0.00	30.500 
21:15	12.8	12.8	12.8	70	4.9	0	1	270	0.00	30.499 
21:20	12.6	12.6	12.6	70	4.7	0	1	270	0.00	30.499 
21:25	12.4	12.4	12.4	70	4.5	0	1	270	0.00	30.499 
21:30	12.3	12.3	12.3	70	4.4	0	1	270	0.00	30.497 
21:35	12.1	12.1	12.1	70	4.2	0	1	270	0.00	30.497 
21:40	12.1	12.1	12.1	71	4.5	0	1	270	0.00	30.497 
21:45	11.9	11.9	11.9	70	4.0	0	1	270	0.00	30.507 
21:50	11.7	11.7	11.7	71	4.1	0	1	270	0.00	30.507 
21:55	11.6	11.6	11.6	71	4.0	0	1	270	0.00	30.507 
22:00	11.4	11.4	11.4	71	3.9	0	1	270	0.00	30.514 
22:05	11.2	11.2	11.2	71	3.7	0	1	270	0.00	30.514 
22:10	11.2	11.2	11.2	72	4.0	0	1	270	0.00	30.514 
22:15	11.1	11.1	11.1	72	3.9	0	1	270	0.00	30.509 
22:20	10.9	10.9	10.9	72	3.7	0	0	---	0.00	30.509 
22:25	10.7	10.7	10.7	72	3.5	0	0	---	0.00	30.509 
22:30	10.5	10.5	10.5	72	3.3	0	0	---	0.00	30.504 
22:35	10.2	10.2	10.2	73	3.3	0	0	---	0.00	30.504 
22:40	10.0	10.0	10.0	73	3.1	0	0	---	0.00	30.504 
22:45	9.5	9.5	9.5	73	2.6	0	0	---	0.00	30.513 
22:50	9.2	9.2	9.2	73	2.3	0	0	---	0.00	30.513 
22:55	8.8	8.8	8.8	73	1.9	0	0	---	0.00	30.513 
23:00	8.3	8.3	8.3	74	1.8	0	0	---	0.00	30.517 
23:05	7.7	7.7	7.7	74	1.2	0	0	---	0.00	30.517 
23:10	7.4	7.4	7.4	74	0.9	0	0	---	0.00	30.517 
23:15	6.9	6.9	6.9	74	0.4	0	0	---	0.00	30.518 
23:20	6.5	6.5	6.5	74	0.0	0	0	---	0.00	30.518 
23:25	6.1	6.1	6.1	75	-0.1	0	0	---	0.00	30.518 
23:30	6.0	6.0	6.0	75	-0.2	0	0	---	0.00	30.518 
23:35	5.6	5.6	5.6	75	-0.6	0	0	---	0.00	30.518 
23:40	5.4	5.4	5.4	76	-0.5	0	0	---	0.00	30.518 
23:45	5.2	5.2	5.2	76	-0.7	0	0	---	0.00	30.519 
23:50	5.2	5.2	5.2	77	-0.4	0	0	---	0.00	30.519 
23:55	5.2	5.2	5.2	77	-0.4	0	0	---	0.00	30.519 

CoCoRaHS
IN-AL-39
A2 Web Hosting
Creative Commons License
GoDaddy
search engine by freefind advanced

loaded 2018-11-17 14:48:05 • last modified 2010-11-18 10:43:29
Privacy PolicyDisclaimer
• wx.awcolley.com is powered by PmWiki v.2002016 •
• all content (unless otherwise noted) © 2018 A W Colley